sensor_id;sensor_type;location;lat;lon;timestamp;pressure;altitude;pressure_sealevel;temperature;humidity
20160;BME280;50187;50.492;12.134;2023-07-20T00:02:17;97261.34;;;25.71;39.21
20160;BME280;50187;50.492;12.134;2023-07-20T00:04:44;97260.31;;;25.73;39.07
20160;BME280;50187;50.492;12.134;2023-07-20T00:07:11;97249.84;;;25.69;39.08
20160;BME280;50187;50.492;12.134;2023-07-20T00:09:37;97252.34;;;25.71;39.01
20160;BME280;50187;50.492;12.134;2023-07-20T00:12:04;97245.84;;;25.65;39.04
20160;BME280;50187;50.492;12.134;2023-07-20T00:14:31;97243.31;;;25.70;38.96
20160;BME280;50187;50.492;12.134;2023-07-20T00:16:58;97253.38;;;25.70;39.05
20160;BME280;50187;50.492;12.134;2023-07-20T00:19:26;97258.63;;;25.71;39.08
20160;BME280;50187;50.492;12.134;2023-07-20T00:21:54;97256.94;;;25.70;38.95
20160;BME280;50187;50.492;12.134;2023-07-20T00:24:21;97259.03;;;25.68;39.01
20160;BME280;50187;50.492;12.134;2023-07-20T00:26:48;97258.22;;;25.68;39.10
20160;BME280;50187;50.492;12.134;2023-07-20T00:29:15;97260.72;;;25.69;39.28
20160;BME280;50187;50.492;12.134;2023-07-20T00:31:42;97253.38;;;25.70;39.27
20160;BME280;50187;50.492;12.134;2023-07-20T00:34:10;97252.78;;;25.68;39.13
20160;BME280;50187;50.492;12.134;2023-07-20T00:36:37;97248.16;;;25.68;38.98
20160;BME280;50187;50.492;12.134;2023-07-20T00:39:03;97252.56;;;25.69;39.00
20160;BME280;50187;50.492;12.134;2023-07-20T00:41:30;97250.88;;;25.68;39.03
20160;BME280;50187;50.492;12.134;2023-07-20T00:43:58;97258.84;;;25.70;39.24
20160;BME280;50187;50.492;12.134;2023-07-20T00:46:25;97247.91;;;25.63;39.07
20160;BME280;50187;50.492;12.134;2023-07-20T00:48:53;97250.22;;;25.66;39.25
20160;BME280;50187;50.492;12.134;2023-07-20T00:51:21;97253.81;;;25.67;39.21
20160;BME280;50187;50.492;12.134;2023-07-20T00:53:49;97253.81;;;25.67;39.23
20160;BME280;50187;50.492;12.134;2023-07-20T00:56:16;97246.88;;;25.64;39.12
20160;BME280;50187;50.492;12.134;2023-07-20T00:58:43;97247.72;;;25.65;39.28
20160;BME280;50187;50.492;12.134;2023-07-20T01:01:11;97249.19;;;25.67;39.13
20160;BME280;50187;50.492;12.134;2023-07-20T01:03:37;97242.47;;;25.63;39.21
20160;BME280;50187;50.492;12.134;2023-07-20T01:09:08;97247.50;;;25.66;39.32
20160;BME280;50187;50.492;12.134;2023-07-20T01:14:14;97241.44;;;25.64;39.08
20160;BME280;50187;50.492;12.134;2023-07-20T01:16:42;97246.25;;;25.62;39.31
20160;BME280;50187;50.492;12.134;2023-07-20T01:19:08;97249.59;;;25.64;39.18
20160;BME280;50187;50.492;12.134;2023-07-20T01:21:44;97247.72;;;25.65;39.29
20160;BME280;50187;50.492;12.134;2023-07-20T01:27:32;97237.03;;;25.63;39.28
20160;BME280;50187;50.492;12.134;2023-07-20T01:32:48;97227.19;;;25.62;39.32
20160;BME280;50187;50.492;12.134;2023-07-20T01:35:17;97232.63;;;25.62;39.28
20160;BME280;50187;50.492;12.134;2023-07-20T01:37:46;97232.63;;;25.62;39.42
20160;BME280;50187;50.492;12.134;2023-07-20T01:40:14;97230.97;;;25.61;39.33
20160;BME280;50187;50.492;12.134;2023-07-20T01:42:46;97234.72;;;25.60;39.39
20160;BME280;50187;50.492;12.134;2023-07-20T01:45:13;97241.00;;;25.61;39.25
20160;BME280;50187;50.492;12.134;2023-07-20T01:47:40;97235.97;;;25.58;39.40
20160;BME280;50187;50.492;12.134;2023-07-20T01:50:07;97236.63;;;25.60;39.26
20160;BME280;50187;50.492;12.134;2023-07-20T01:52:34;97252.31;;;25.58;39.30
20160;BME280;50187;50.492;12.134;2023-07-20T01:55:00;97243.72;;;25.61;39.18
20160;BME280;50187;50.492;12.134;2023-07-20T01:57:29;97244.38;;;25.63;39.11
20160;BME280;50187;50.492;12.134;2023-07-20T01:59:56;97238.47;;;25.59;39.38
20160;BME280;50187;50.492;12.134;2023-07-20T02:02:26;97240.16;;;25.60;39.31
20160;BME280;50187;50.492;12.134;2023-07-20T02:04:54;97247.72;;;25.58;39.22
20160;BME280;50187;50.492;12.134;2023-07-20T02:07:21;97238.47;;;25.59;39.32
20160;BME280;50187;50.492;12.134;2023-07-20T02:09:47;97254.44;;;25.62;39.16
20160;BME280;50187;50.492;12.134;2023-07-20T02:12:14;97247.31;;;25.61;39.43
20160;BME280;50187;50.492;12.134;2023-07-20T02:14:41;97245.59;;;25.60;39.23
20160;BME280;50187;50.492;12.134;2023-07-20T02:17:08;97249.38;;;25.59;39.42
20160;BME280;50187;50.492;12.134;2023-07-20T02:19:40;97241.19;;;25.59;39.46
20160;BME280;50187;50.492;12.134;2023-07-20T02:22:07;97238.47;;;25.59;39.47
20160;BME280;50187;50.492;12.134;2023-07-20T02:24:34;97245.81;;;25.59;39.43
20160;BME280;50187;50.492;12.134;2023-07-20T02:27:00;97254.81;;;25.59;39.17
20160;BME280;50187;50.492;12.134;2023-07-20T02:29:27;97250.66;;;25.57;39.33
20160;BME280;50187;50.492;12.134;2023-07-20T02:31:54;97249.38;;;25.59;39.29
20160;BME280;50187;50.492;12.134;2023-07-20T02:34:20;97247.50;;;25.60;39.21
20160;BME280;50187;50.492;12.134;2023-07-20T02:36:47;97245.00;;;25.58;39.34
20160;BME280;50187;50.492;12.134;2023-07-20T02:39:14;97252.31;;;25.58;39.27
20160;BME280;50187;50.492;12.134;2023-07-20T02:41:41;97241.63;;;25.56;39.46
20160;BME280;50187;50.492;12.134;2023-07-20T02:44:08;97246.03;;;25.57;39.21
20160;BME280;50187;50.492;12.134;2023-07-20T02:46:34;97236.16;;;25.56;39.35
20160;BME280;50187;50.492;12.134;2023-07-20T02:49:01;97241.81;;;25.54;39.30
20160;BME280;50187;50.492;12.134;2023-07-20T02:51:28;97246.44;;;25.54;39.47
20160;BME280;50187;50.492;12.134;2023-07-20T02:53:55;97238.47;;;25.52;39.36
20160;BME280;50187;50.492;12.134;2023-07-20T02:56:21;97250.81;;;25.55;39.28
20160;BME280;50187;50.492;12.134;2023-07-20T02:58:50;97256.91;;;25.50;39.30
20160;BME280;50187;50.492;12.134;2023-07-20T03:01:16;97264.03;;;25.51;39.38
20160;BME280;50187;50.492;12.134;2023-07-20T03:03:43;97263.63;;;25.54;39.36
20160;BME280;50187;50.492;12.134;2023-07-20T03:06:14;97257.75;;;25.51;39.40
20160;BME280;50187;50.492;12.134;2023-07-20T03:08:44;97257.09;;;25.49;39.27
20160;BME280;50187;50.492;12.134;2023-07-20T03:11:17;97268.22;;;25.54;39.31
20160;BME280;50187;50.492;12.134;2023-07-20T03:13:44;97264.84;;;25.52;39.37
20160;BME280;50187;50.492;12.134;2023-07-20T03:16:13;97274.72;;;25.53;39.46
20160;BME280;50187;50.492;12.134;2023-07-20T03:18:42;97290.22;;;25.52;39.33
20160;BME280;50187;50.492;12.134;2023-07-20T03:21:09;97277.44;;;25.53;39.34
20160;BME280;50187;50.492;12.134;2023-07-20T03:23:40;97284.13;;;25.50;39.58
20160;BME280;50187;50.492;12.134;2023-07-20T03:26:07;97282.25;;;25.51;39.59
20160;BME280;50187;50.492;12.134;2023-07-20T03:28:38;97282.44;;;25.49;39.47
20160;BME280;50187;50.492;12.134;2023-07-20T03:31:05;97279.53;;;25.51;39.38
20160;BME280;50187;50.492;12.134;2023-07-20T03:33:35;97278.47;;;25.52;39.34
20160;BME280;50187;50.492;12.134;2023-07-20T03:36:02;97279.09;;;25.47;39.56
20160;BME280;50187;50.492;12.134;2023-07-20T03:38:30;97281.00;;;25.47;39.47
20160;BME280;50187;50.492;12.134;2023-07-20T03:40:58;97289.56;;;25.50;39.41
20160;BME280;50187;50.492;12.134;2023-07-20T03:43:27;97293.97;;;25.51;39.47
20160;BME280;50187;50.492;12.134;2023-07-20T03:45:54;97297.75;;;25.50;39.62
20160;BME280;50187;50.492;12.134;2023-07-20T03:48:22;97295.03;;;25.50;39.33
20160;BME280;50187;50.492;12.134;2023-07-20T03:50:52;97295.22;;;25.49;39.55
20160;BME280;50187;50.492;12.134;2023-07-20T03:53:19;97296.06;;;25.49;39.26
20160;BME280;50187;50.492;12.134;2023-07-20T03:55:47;97290.00;;;25.47;39.40
20160;BME280;50187;50.492;12.134;2023-07-20T03:58:15;97287.25;;;25.47;39.66
20160;BME280;50187;50.492;12.134;2023-07-20T04:00:46;97290.19;;;25.46;39.54
20160;BME280;50187;50.492;12.134;2023-07-20T04:03:14;97289.16;;;25.47;39.51
20160;BME280;50187;50.492;12.134;2023-07-20T04:05:42;97289.78;;;25.49;39.61
20160;BME280;50187;50.492;12.134;2023-07-20T04:08:09;97289.16;;;25.47;39.62
20160;BME280;50187;50.492;12.134;2023-07-20T04:10:38;97297.94;;;25.49;39.52
20160;BME280;50187;50.492;12.134;2023-07-20T04:13:05;97288.31;;;25.46;39.53
20160;BME280;50187;50.492;12.134;2023-07-20T04:15:32;97290.19;;;25.46;39.47
20160;BME280;50187;50.492;12.134;2023-07-20T04:17:58;97290.81;;;25.48;39.62
20160;BME280;50187;50.492;12.134;2023-07-20T04:20:25;97289.16;;;25.47;39.49
20160;BME280;50187;50.492;12.134;2023-07-20T04:22:52;97291.03;;;25.46;39.61
20160;BME280;50187;50.492;12.134;2023-07-20T04:25:19;97295.63;;;25.46;39.67
20160;BME280;50187;50.492;12.134;2023-07-20T04:27:45;97289.34;;;25.45;39.41
20160;BME280;50187;50.492;12.134;2023-07-20T04:30:13;97293.75;;;25.46;39.35
20160;BME280;50187;50.492;12.134;2023-07-20T04:32:40;97295.63;;;25.46;39.49
20160;BME280;50187;50.492;12.134;2023-07-20T04:38:06;97295.63;;;25.46;39.54
20160;BME280;50187;50.492;12.134;2023-07-20T04:40:33;97286.59;;;25.45;39.66
20160;BME280;50187;50.492;12.134;2023-07-20T04:43:00;97295.63;;;25.46;39.45
20160;BME280;50187;50.492;12.134;2023-07-20T04:45:27;97291.88;;;25.47;39.53
20160;BME280;50187;50.492;12.134;2023-07-20T04:47:53;97293.75;;;25.46;39.54
20160;BME280;50187;50.492;12.134;2023-07-20T04:50:21;97297.34;;;25.47;39.70
20160;BME280;50187;50.492;12.134;2023-07-20T04:52:49;97291.22;;;25.45;39.40
20160;BME280;50187;50.492;12.134;2023-07-20T04:55:18;97296.69;;;25.45;39.42
20160;BME280;50187;50.492;12.134;2023-07-20T04:57:46;97299.41;;;25.45;39.51
20160;BME280;50187;50.492;12.134;2023-07-20T05:00:13;97302.13;;;25.45;39.63
20160;BME280;50187;50.492;12.134;2023-07-20T05:02:41;97312.19;;;25.44;39.47
20160;BME280;50187;50.492;12.134;2023-07-20T05:05:08;97313.22;;;25.43;39.48
20160;BME280;50187;50.492;12.134;2023-07-20T05:07:35;97314.06;;;25.44;39.62
20160;BME280;50187;50.492;12.134;2023-07-20T05:10:02;97316.78;;;25.44;39.45
20160;BME280;50187;50.492;12.134;2023-07-20T05:12:29;97317.84;;;25.43;39.67
20160;BME280;50187;50.492;12.134;2023-07-20T05:14:55;97312.16;;;25.37;39.77
20160;BME280;50187;50.492;12.134;2023-07-20T05:17:22;97311.31;;;25.37;40.29
20160;BME280;50187;50.492;12.134;2023-07-20T05:19:50;97316.31;;;25.33;40.73
20160;BME280;50187;50.492;12.134;2023-07-20T05:22:17;97320.88;;;25.26;41.44
20160;BME280;50187;50.492;12.134;2023-07-20T05:24:44;97328.38;;;25.17;41.63
20160;BME280;50187;50.492;12.134;2023-07-20T05:27:10;97321.22;;;25.16;41.84
20160;BME280;50187;50.492;12.134;2023-07-20T05:29:37;97323.47;;;25.06;42.08
20160;BME280;50187;50.492;12.134;2023-07-20T05:32:04;97325.94;;;25.01;42.33
20160;BME280;50187;50.492;12.134;2023-07-20T05:34:31;97321.75;;;24.98;42.51
20160;BME280;50187;50.492;12.134;2023-07-20T05:37:10;97317.06;;;24.85;42.82
20160;BME280;50187;50.492;12.134;2023-07-20T05:39:40;97325.81;;;24.81;43.14
20160;BME280;50187;50.492;12.134;2023-07-20T05:42:07;97321.81;;;24.77;42.89
20160;BME280;50187;50.492;12.134;2023-07-20T05:44:33;97317.56;;;24.67;42.96
20160;BME280;50187;50.492;12.134;2023-07-20T05:47:00;97326.56;;;24.68;43.01
20160;BME280;50187;50.492;12.134;2023-07-20T05:49:26;97338.50;;;24.67;43.18
20160;BME280;50187;50.492;12.134;2023-07-20T05:51:54;97338.88;;;24.64;43.73
20160;BME280;50187;50.492;12.134;2023-07-20T05:54:24;97324.81;;;24.60;43.94
20160;BME280;50187;50.492;12.134;2023-07-20T05:56:50;97335.50;;;24.62;43.53
20160;BME280;50187;50.492;12.134;2023-07-20T05:59:17;97334.28;;;24.64;43.43
20160;BME280;50187;50.492;12.134;2023-07-20T06:01:44;97334.84;;;24.60;43.72
20160;BME280;50187;50.492;12.134;2023-07-20T06:04:10;97330.38;;;24.52;43.68
20160;BME280;50187;50.492;12.134;2023-07-20T06:06:37;97333.78;;;24.32;44.09
20160;BME280;50187;50.492;12.134;2023-07-20T06:09:03;97317.75;;;24.16;44.58
20160;BME280;50187;50.492;12.134;2023-07-20T06:11:31;97324.47;;;24.20;44.61
20160;BME280;50187;50.492;12.134;2023-07-20T06:13:58;97322.72;;;24.12;44.87
20160;BME280;50187;50.492;12.134;2023-07-20T06:16:24;97324.25;;;24.00;45.61
20160;BME280;50187;50.492;12.134;2023-07-20T06:18:51;97317.72;;;23.94;45.23
20160;BME280;50187;50.492;12.134;2023-07-20T06:21:18;97314.97;;;23.73;45.91
20160;BME280;50187;50.492;12.134;2023-07-20T06:23:44;97324.59;;;23.75;45.79
20160;BME280;50187;50.492;12.134;2023-07-20T06:26:12;97318.97;;;23.77;45.56
20160;BME280;50187;50.492;12.134;2023-07-20T06:28:39;97319.16;;;23.90;45.19
20160;BME280;50187;50.492;12.134;2023-07-20T06:31:05;97328.41;;;23.96;45.20
20160;BME280;50187;50.492;12.134;2023-07-20T06:33:32;97321.38;;;24.02;45.42
20160;BME280;50187;50.492;12.134;2023-07-20T06:35:58;97325.81;;;24.09;45.52
20160;BME280;50187;50.492;12.134;2023-07-20T06:38:25;97316.84;;;24.09;45.50
20160;BME280;50187;50.492;12.134;2023-07-20T06:40:55;97314.50;;;24.06;45.44
20160;BME280;50187;50.492;12.134;2023-07-20T06:43:21;97313.25;;;24.08;45.66
20160;BME280;50187;50.492;12.134;2023-07-20T06:45:52;97314.88;;;24.03;46.17
20160;BME280;50187;50.492;12.134;2023-07-20T06:48:22;97316.63;;;23.89;46.59
20160;BME280;50187;50.492;12.134;2023-07-20T06:50:48;97318.16;;;23.76;46.66
20160;BME280;50187;50.492;12.134;2023-07-20T06:53:15;97320.31;;;23.66;47.21
20160;BME280;50187;50.492;12.134;2023-07-20T06:55:42;97327.09;;;23.55;47.47
20160;BME280;50187;50.492;12.134;2023-07-20T06:58:10;97316.91;;;23.42;47.52
20160;BME280;50187;50.492;12.134;2023-07-20T07:00:36;97318.38;;;23.45;47.29
20160;BME280;50187;50.492;12.134;2023-07-20T07:03:03;97313.75;;;23.60;46.91
20160;BME280;50187;50.492;12.134;2023-07-20T07:05:29;97314.25;;;23.49;47.36
20160;BME280;50187;50.492;12.134;2023-07-20T07:07:59;97318.69;;;23.35;47.56
20160;BME280;50187;50.492;12.134;2023-07-20T07:10:26;97318.50;;;23.37;47.22
20160;BME280;50187;50.492;12.134;2023-07-20T07:12:52;97311.00;;;23.39;47.28
20160;BME280;50187;50.492;12.134;2023-07-20T07:15:19;97304.16;;;23.43;46.95
20160;BME280;50187;50.492;12.134;2023-07-20T07:17:45;97310.81;;;23.40;46.78
20160;BME280;50187;50.492;12.134;2023-07-20T07:20:12;97310.44;;;23.43;46.35
20160;BME280;50187;50.492;12.134;2023-07-20T07:22:47;97315.84;;;23.43;45.75
20160;BME280;50187;50.492;12.134;2023-07-20T07:25:14;97313.16;;;23.43;45.55
20160;BME280;50187;50.492;12.134;2023-07-20T07:27:48;97308.28;;;23.39;45.24
20160;BME280;50187;50.492;12.134;2023-07-20T07:30:15;97318.03;;;23.48;44.94
20160;BME280;50187;50.492;12.134;2023-07-20T07:32:41;97315.13;;;23.49;44.66
20160;BME280;50187;50.492;12.134;2023-07-20T07:35:08;97313.63;;;23.47;44.82
20160;BME280;50187;50.492;12.134;2023-07-20T07:37:35;97310.44;;;23.43;44.81
20160;BME280;50187;50.492;12.134;2023-07-20T07:40:22;97317.34;;;23.46;44.34
20160;BME280;50187;50.492;12.134;2023-07-20T07:42:49;97316.97;;;23.49;44.22
20160;BME280;50187;50.492;12.134;2023-07-20T07:45:16;97317.25;;;23.54;44.15
20160;BME280;50187;50.492;12.134;2023-07-20T07:47:43;97311.19;;;23.52;44.30
20160;BME280;50187;50.492;12.134;2023-07-20T07:50:10;97312.22;;;23.51;44.01
20160;BME280;50187;50.492;12.134;2023-07-20T07:52:37;97313.81;;;23.45;43.97
20160;BME280;50187;50.492;12.134;2023-07-20T07:55:04;97315.59;;;23.38;44.46
20160;BME280;50187;50.492;12.134;2023-07-20T07:57:33;97318.50;;;23.37;44.30
20160;BME280;50187;50.492;12.134;2023-07-20T08:00:00;97311.50;;;23.42;43.85
20160;BME280;50187;50.492;12.134;2023-07-20T08:02:26;97308.28;;;23.39;44.04
20160;BME280;50187;50.492;12.134;2023-07-20T08:04:53;97301.75;;;23.33;43.95
20160;BME280;50187;50.492;12.134;2023-07-20T08:07:19;97286.78;;;23.22;44.01
20160;BME280;50187;50.492;12.134;2023-07-20T08:09:46;97293.06;;;23.23;43.80
20160;BME280;50187;50.492;12.134;2023-07-20T08:12:12;97314.56;;;23.39;43.87
20160;BME280;50187;50.492;12.134;2023-07-20T08:14:40;97312.03;;;23.38;43.92
20160;BME280;50187;50.492;12.134;2023-07-20T08:17:06;97321.09;;;23.45;43.84
20160;BME280;50187;50.492;12.134;2023-07-20T08:19:33;97312.13;;;23.44;43.93
20160;BME280;50187;50.492;12.134;2023-07-20T08:22:01;97318.03;;;23.48;43.96
20160;BME280;50187;50.492;12.134;2023-07-20T08:24:29;97307.72;;;23.43;43.90
20160;BME280;50187;50.492;12.134;2023-07-20T08:26:55;97309.59;;;23.43;43.74
20160;BME280;50187;50.492;12.134;2023-07-20T08:29:22;97312.22;;;23.51;43.55
20160;BME280;50187;50.492;12.134;2023-07-20T08:31:49;97310.72;;;23.48;43.23
20160;BME280;50187;50.492;12.134;2023-07-20T08:34:15;97315.03;;;23.43;43.46
20160;BME280;50187;50.492;12.134;2023-07-20T08:36:57;97321.03;;;23.38;43.33
20160;BME280;50187;50.492;12.134;2023-07-20T08:39:24;97308.69;;;23.36;42.85
20160;BME280;50187;50.492;12.134;2023-07-20T08:41:51;97317.47;;;23.38;42.96
20160;BME280;50187;50.492;12.134;2023-07-20T08:44:18;97313.91;;;23.37;42.91
20160;BME280;50187;50.492;12.134;2023-07-20T08:46:45;97306.78;;;23.36;42.51
20160;BME280;50187;50.492;12.134;2023-07-20T08:49:16;97314.50;;;23.32;42.25
20160;BME280;50187;50.492;12.134;2023-07-20T08:51:45;97319.91;;;23.32;42.12
20160;BME280;50187;50.492;12.134;2023-07-20T08:54:13;97323.09;;;23.36;41.93
20160;BME280;50187;50.492;12.134;2023-07-20T08:56:41;97317.47;;;23.38;42.15
20160;BME280;50187;50.492;12.134;2023-07-20T08:59:09;97318.13;;;23.40;42.64
20160;BME280;50187;50.492;12.134;2023-07-20T09:01:37;97324.09;;;23.35;42.97
20160;BME280;50187;50.492;12.134;2023-07-20T09:04:05;97325.06;;;23.27;43.41
20160;BME280;50187;50.492;12.134;2023-07-20T09:06:32;97318.81;;;23.27;43.46
20160;BME280;50187;50.492;12.134;2023-07-20T09:09:01;97313.84;;;23.15;43.28
20160;BME280;50187;50.492;12.134;2023-07-20T09:11:28;97324.34;;;23.19;43.42
20160;BME280;50187;50.492;12.134;2023-07-20T09:14:05;97319.53;;;23.21;43.51
20160;BME280;50187;50.492;12.134;2023-07-20T09:16:33;97314.13;;;23.21;43.33
20160;BME280;50187;50.492;12.134;2023-07-20T09:19:14;97321.53;;;23.12;42.62
20160;BME280;50187;50.492;12.134;2023-07-20T09:21:51;97318.88;;;23.04;42.56
20160;BME280;50187;50.492;12.134;2023-07-20T09:24:19;97329.44;;;22.98;42.98
20160;BME280;50187;50.492;12.134;2023-07-20T09:26:47;97314.47;;;23.03;43.18
20160;BME280;50187;50.492;12.134;2023-07-20T09:29:20;97322.44;;;23.04;43.15
20160;BME280;50187;50.492;12.134;2023-07-20T09:32:01;97330.72;;;23.03;43.39
20160;BME280;50187;50.492;12.134;2023-07-20T09:34:29;97330.94;;;23.01;43.64
20160;BME280;50187;50.492;12.134;2023-07-20T09:37:01;97329.53;;;23.05;43.60
20160;BME280;50187;50.492;12.134;2023-07-20T09:39:29;97330.66;;;23.11;43.19
20160;BME280;50187;50.492;12.134;2023-07-20T09:42:00;97336.50;;;23.23;43.15
20160;BME280;50187;50.492;12.134;2023-07-20T09:44:30;97338.91;;;23.32;43.04
20160;BME280;50187;50.492;12.134;2023-07-20T09:47:03;97333.38;;;23.41;42.91
20160;BME280;50187;50.492;12.134;2023-07-20T09:49:31;97334.75;;;23.52;42.75
20160;BME280;50187;50.492;12.134;2023-07-20T09:52:18;97332.03;;;23.66;42.58
20160;BME280;50187;50.492;12.134;2023-07-20T09:55:08;97328.34;;;23.74;42.00
20160;BME280;50187;50.492;12.134;2023-07-20T09:57:35;97321.09;;;23.81;42.14
20160;BME280;50187;50.492;12.134;2023-07-20T10:00:04;97319.16;;;23.90;41.71
20160;BME280;50187;50.492;12.134;2023-07-20T10:02:46;97335.91;;;23.94;41.83
20160;BME280;50187;50.492;12.134;2023-07-20T10:05:14;97322.41;;;24.00;41.47
20160;BME280;50187;50.492;12.134;2023-07-20T10:07:49;97322.00;;;24.04;41.65
20160;BME280;50187;50.492;12.134;2023-07-20T10:10:18;97325.38;;;24.06;41.48
20160;BME280;50187;50.492;12.134;2023-07-20T10:12:48;97318.06;;;24.06;41.34
20160;BME280;50187;50.492;12.134;2023-07-20T10:15:29;97311.22;;;24.10;41.41
20160;BME280;50187;50.492;12.134;2023-07-20T10:18:07;97314.13;;;24.09;41.59
20160;BME280;50187;50.492;12.134;2023-07-20T10:20:39;97306.59;;;24.11;41.28
20160;BME280;50187;50.492;12.134;2023-07-20T10:23:28;97318.56;;;24.16;41.32
20160;BME280;50187;50.492;12.134;2023-07-20T10:25:56;97310.81;;;24.13;41.21
20160;BME280;50187;50.492;12.134;2023-07-20T10:28:24;97303.50;;;24.14;41.18
20160;BME280;50187;50.492;12.134;2023-07-20T10:30:51;97311.66;;;24.14;41.12
20160;BME280;50187;50.492;12.134;2023-07-20T10:33:18;97316.25;;;24.13;41.18
20160;BME280;50187;50.492;12.134;2023-07-20T10:36:15;97309.97;;;24.13;41.11
20160;BME280;50187;50.492;12.134;2023-07-20T10:41:37;97307.25;;;24.13;41.22
20160;BME280;50187;50.492;12.134;2023-07-20T10:44:07;97312.09;;;24.17;41.12
20160;BME280;50187;50.492;12.134;2023-07-20T10:46:42;97315.47;;;24.20;41.28
20160;BME280;50187;50.492;12.134;2023-07-20T10:49:14;97313.84;;;24.25;41.07
20160;BME280;50187;50.492;12.134;2023-07-20T10:56:57;97323.47;;;24.28;41.07
20160;BME280;50187;50.492;12.134;2023-07-20T11:01:57;97370.09;;;24.25;40.83
20160;BME280;50187;50.492;12.134;2023-07-20T11:04:41;97389.03;;;24.18;41.14
20160;BME280;50187;50.492;12.134;2023-07-20T11:07:09;97378.56;;;24.15;41.35
20160;BME280;50187;50.492;12.134;2023-07-20T11:09:36;97372.69;;;24.11;41.73
20160;BME280;50187;50.492;12.134;2023-07-20T11:12:11;97361.81;;;24.11;41.67
20160;BME280;50187;50.492;12.134;2023-07-20T11:14:53;97363.03;;;24.09;42.04
20160;BME280;50187;50.492;12.134;2023-07-20T11:17:20;97339.41;;;24.09;42.21
20160;BME280;50187;50.492;12.134;2023-07-20T11:19:57;97354.50;;;24.12;42.34
20160;BME280;50187;50.492;12.134;2023-07-20T11:22:27;97353.47;;;24.13;42.54
20160;BME280;50187;50.492;12.134;2023-07-20T11:24:57;97353.91;;;24.16;42.61
20160;BME280;50187;50.492;12.134;2023-07-20T11:27:24;97345.53;;;24.18;42.45
20160;BME280;50187;50.492;12.134;2023-07-20T11:29:51;97349.56;;;24.22;42.64
20160;BME280;50187;50.492;12.134;2023-07-20T11:32:21;97346.09;;;24.28;42.96
20160;BME280;50187;50.492;12.134;2023-07-20T11:34:48;97342.78;;;24.33;42.85
20160;BME280;50187;50.492;12.134;2023-07-20T11:37:16;97337.97;;;24.35;42.89
20160;BME280;50187;50.492;12.134;2023-07-20T11:39:43;97337.78;;;24.37;42.95
20160;BME280;50187;50.492;12.134;2023-07-20T11:42:11;97337.59;;;24.38;42.95
20160;BME280;50187;50.492;12.134;2023-07-20T11:44:38;97326.53;;;24.40;42.95
20160;BME280;50187;50.492;12.134;2023-07-20T11:47:09;97330.53;;;24.44;42.57
20160;BME280;50187;50.492;12.134;2023-07-20T11:52:07;97313.50;;;24.57;42.55
20160;BME280;50187;50.492;12.134;2023-07-20T11:54:35;97309.16;;;24.62;42.45
20160;BME280;50187;50.492;12.134;2023-07-20T11:57:03;97305.84;;;24.67;42.17
20160;BME280;50187;50.492;12.134;2023-07-20T11:59:32;97306.72;;;24.74;42.04
20160;BME280;50187;50.492;12.134;2023-07-20T12:02:01;97308.63;;;24.74;42.03
20160;BME280;50187;50.492;12.134;2023-07-20T12:04:31;97305.69;;;24.75;42.02
20160;BME280;50187;50.492;12.134;2023-07-20T12:06:58;97309.44;;;24.74;41.98
20160;BME280;50187;50.492;12.134;2023-07-20T12:09:25;97309.44;;;24.74;41.76
20160;BME280;50187;50.492;12.134;2023-07-20T12:12:09;97297.06;;;24.65;41.83
20160;BME280;50187;50.492;12.134;2023-07-20T12:14:38;97315.50;;;24.69;41.78
20160;BME280;50187;50.492;12.134;2023-07-20T12:17:08;97307.34;;;24.69;41.67
20160;BME280;50187;50.492;12.134;2023-07-20T12:19:38;97304.38;;;24.64;42.04
20160;BME280;50187;50.492;12.134;2023-07-20T12:22:06;97306.06;;;24.65;41.85
20160;BME280;50187;50.492;12.134;2023-07-20T12:24:32;97303.72;;;24.62;41.83
20160;BME280;50187;50.492;12.134;2023-07-20T12:26:59;97303.53;;;24.64;41.77
20160;BME280;50187;50.492;12.134;2023-07-20T12:29:26;97304.75;;;24.61;41.87
20160;BME280;50187;50.492;12.134;2023-07-20T12:31:53;97297.63;;;24.60;41.94
20160;BME280;50187;50.492;12.134;2023-07-20T12:34:19;97303.06;;;24.60;41.68
20160;BME280;50187;50.492;12.134;2023-07-20T12:36:46;97306.16;;;24.57;41.78
20160;BME280;50187;50.492;12.134;2023-07-20T12:39:13;97304.47;;;24.56;41.93
20160;BME280;50187;50.492;12.134;2023-07-20T12:41:39;97309.28;;;24.54;41.63
20160;BME280;50187;50.492;12.134;2023-07-20T12:44:06;97323.72;;;24.55;42.08
20160;BME280;50187;50.492;12.134;2023-07-20T12:46:32;97330.19;;;24.53;41.96
20160;BME280;50187;50.492;12.134;2023-07-20T12:49:01;97329.53;;;24.51;42.29
20160;BME280;50187;50.492;12.134;2023-07-20T12:51:28;97329.47;;;24.45;42.25
20160;BME280;50187;50.492;12.134;2023-07-20T12:53:55;97338.31;;;24.47;42.31
20160;BME280;50187;50.492;12.134;2023-07-20T12:56:22;97337.25;;;24.48;42.29
20160;BME280;50187;50.492;12.134;2023-07-20T12:58:51;97333.91;;;24.46;42.55
20160;BME280;50187;50.492;12.134;2023-07-20T13:01:18;97333.69;;;24.47;42.60
20160;BME280;50187;50.492;12.134;2023-07-20T13:03:44;97337.06;;;24.49;42.37
20160;BME280;50187;50.492;12.134;2023-07-20T13:06:15;97336.22;;;24.49;42.46
20160;BME280;50187;50.492;12.134;2023-07-20T13:08:44;97341.44;;;24.50;42.20
20160;BME280;50187;50.492;12.134;2023-07-20T13:11:11;97345.03;;;24.51;42.38
20160;BME280;50187;50.492;12.134;2023-07-20T13:13:37;97352.13;;;24.52;42.38
20160;BME280;50187;50.492;12.134;2023-07-20T13:16:04;97359.19;;;24.46;42.41
20160;BME280;50187;50.492;12.134;2023-07-20T13:18:31;97353.94;;;24.45;42.08
20160;BME280;50187;50.492;12.134;2023-07-20T13:20:57;97352.84;;;24.39;42.05
20160;BME280;50187;50.492;12.134;2023-07-20T13:23:28;97353.72;;;24.40;42.26
20160;BME280;50187;50.492;12.134;2023-07-20T13:25:54;97365.81;;;24.37;42.15